sensor_id;sensor_type;location;lat;lon;timestamp;pressure;altitude;pressure_sealevel;temperature;humidity
51083;BME280;37131;42.694;23.350;2022-09-28T00:01:55;94442.50;;;12.53;100.00
51083;BME280;37131;42.694;23.350;2022-09-28T00:04:21;94480.41;;;12.50;100.00
51083;BME280;37131;42.694;23.350;2022-09-28T00:06:46;94487.00;;;12.58;100.00
51083;BME280;37131;42.694;23.350;2022-09-28T00:09:13;94479.69;;;12.65;100.00
51083;BME280;37131;42.694;23.350;2022-09-28T00:11:39;94468.03;;;12.30;100.00
51083;BME280;37131;42.694;23.350;2022-09-28T00:14:05;94477.97;;;12.33;100.00
51083;BME280;37131;42.694;23.350;2022-09-28T00:16:37;94471.56;;;12.56;100.00
51083;BME280;37131;42.694;23.350;2022-09-28T00:19:03;94475.66;;;12.42;100.00
51083;BME280;37131;42.694;23.350;2022-09-28T00:21:32;94467.53;;;12.33;100.00
51083;BME280;37131;42.694;23.350;2022-09-28T00:23:59;94464.41;;;12.41;100.00
51083;BME280;37131;42.694;23.350;2022-09-28T00:29:32;94481.03;;;12.20;100.00
51083;BME280;37131;42.694;23.350;2022-09-28T00:32:01;94474.56;;;12.33;100.00
51083;BME280;37131;42.694;23.350;2022-09-28T00:34:29;94468.19;;;12.61;100.00
51083;BME280;37131;42.694;23.350;2022-09-28T00:36:58;94470.16;;;12.38;100.00
51083;BME280;37131;42.694;23.350;2022-09-28T00:39:23;94467.66;;;12.64;100.00
51083;BME280;37131;42.694;23.350;2022-09-28T00:41:49;94466.63;;;12.70;100.00
51083;BME280;37131;42.694;23.350;2022-09-28T00:46:49;94476.09;;;12.87;100.00
51083;BME280;37131;42.694;23.350;2022-09-28T00:49:20;94406.38;;;12.39;100.00
51083;BME280;37131;42.694;23.350;2022-09-28T00:51:47;94468.50;;;12.80;100.00
51083;BME280;37131;42.694;23.350;2022-09-28T00:54:14;94467.50;;;13.02;100.00
51083;BME280;37131;42.694;23.350;2022-09-28T00:56:42;94468.31;;;13.02;100.00
51083;BME280;37131;42.694;23.350;2022-09-28T00:59:09;94427.28;;;12.39;100.00
51083;BME280;37131;42.694;23.350;2022-09-28T01:01:35;94470.53;;;12.62;100.00
51083;BME280;37131;42.694;23.350;2022-09-28T01:04:01;94425.66;;;12.23;100.00
51083;BME280;37131;42.694;23.350;2022-09-28T01:06:31;94464.97;;;12.43;100.00
51083;BME280;37131;42.694;23.350;2022-09-28T01:08:59;94477.06;;;12.60;100.00
51083;BME280;37131;42.694;23.350;2022-09-28T01:11:29;94489.19;;;12.28;100.00
51083;BME280;37131;42.694;23.350;2022-09-28T01:13:56;94474.34;;;12.34;100.00
51083;BME280;37131;42.694;23.350;2022-09-28T01:22:17;94473.97;;;12.73;100.00
51083;BME280;37131;42.694;23.350;2022-09-28T01:24:48;94477.78;;;12.50;100.00
51083;BME280;37131;42.694;23.350;2022-09-28T01:30:17;94483.47;;;12.37;100.00
51083;BME280;37131;42.694;23.350;2022-09-28T01:33:09;94486.78;;;12.17;100.00
51083;BME280;37131;42.694;23.350;2022-09-28T01:35:50;94474.53;;;12.27;100.00
51083;BME280;37131;42.694;23.350;2022-09-28T01:38:25;94477.78;;;12.50;100.00
51083;BME280;37131;42.694;23.350;2022-09-28T01:40:54;94504.38;;;12.37;100.00
51083;BME280;37131;42.694;23.350;2022-09-28T01:43:25;94482.44;;;12.38;100.00
51083;BME280;37131;42.694;23.350;2022-09-28T01:46:13;94492.06;;;12.27;100.00
51083;BME280;37131;42.694;23.350;2022-09-28T01:48:47;94489.53;;;12.42;100.00
51083;BME280;37131;42.694;23.350;2022-09-28T01:51:28;94494.03;;;11.77;100.00
51083;BME280;37131;42.694;23.350;2022-09-28T01:54:00;94493.88;;;11.56;100.00
51083;BME280;37131;42.694;23.350;2022-09-28T01:56:39;94500.91;;;11.88;100.00
51083;BME280;37131;42.694;23.350;2022-09-28T01:59:07;94490.59;;;12.04;100.00
51083;BME280;37131;42.694;23.350;2022-09-28T02:01:42;94490.41;;;11.78;100.00
51083;BME280;37131;42.694;23.350;2022-09-28T02:06:44;94497.38;;;12.00;100.00
51083;BME280;37131;42.694;23.350;2022-09-28T02:09:16;94518.16;;;11.89;100.00
51083;BME280;37131;42.694;23.350;2022-09-28T02:11:49;94502.66;;;12.10;100.00
51083;BME280;37131;42.694;23.350;2022-09-28T02:14:17;94504.00;;;11.85;100.00
51083;BME280;37131;42.694;23.350;2022-09-28T02:16:46;94508.13;;;12.08;100.00
51083;BME280;37131;42.694;23.350;2022-09-28T02:19:22;94510.31;;;11.89;100.00
51083;BME280;37131;42.694;23.350;2022-09-28T02:22:43;94510.81;;;11.86;100.00
51083;BME280;37131;42.694;23.350;2022-09-28T02:30:15;94489.00;;;11.65;100.00
51083;BME280;37131;42.694;23.350;2022-09-28T02:32:46;94497.00;;;11.58;100.00
51083;BME280;37131;42.694;23.350;2022-09-28T02:35:14;94470.81;;;11.48;100.00
51083;BME280;37131;42.694;23.350;2022-09-28T02:37:40;94506.06;;;11.78;100.00
51083;BME280;37131;42.694;23.350;2022-09-28T02:40:14;94501.25;;;11.97;100.00
51083;BME280;37131;42.694;23.350;2022-09-28T02:42:51;94509.16;;;11.75;100.00
51083;BME280;37131;42.694;23.350;2022-09-28T02:45:46;94489.94;;;11.54;100.00
51083;BME280;37131;42.694;23.350;2022-09-28T02:48:27;94513.75;;;11.63;100.00
51083;BME280;37131;42.694;23.350;2022-09-28T02:53:52;94512.19;;;11.62;100.00
51083;BME280;37131;42.694;23.350;2022-09-28T03:05:10;94507.94;;;11.50;100.00
51083;BME280;37131;42.694;23.350;2022-09-28T03:10:49;94527.69;;;11.73;100.00
51083;BME280;37131;42.694;23.350;2022-09-28T03:13:16;94521.16;;;11.44;100.00
51083;BME280;37131;42.694;23.350;2022-09-28T03:15:42;94518.72;;;11.59;100.00
51083;BME280;37131;42.694;23.350;2022-09-28T03:18:09;94523.38;;;11.89;100.00
51083;BME280;37131;42.694;23.350;2022-09-28T03:20:34;94526.28;;;11.61;100.00
51083;BME280;37131;42.694;23.350;2022-09-28T03:23:00;94526.50;;;11.86;100.00
51083;BME280;37131;42.694;23.350;2022-09-28T03:25:26;94475.69;;;11.67;100.00
51083;BME280;37131;42.694;23.350;2022-09-28T03:27:52;94545.09;;;11.90;100.00
51083;BME280;37131;42.694;23.350;2022-09-28T03:30:17;94533.56;;;11.86;100.00
51083;BME280;37131;42.694;23.350;2022-09-28T03:32:42;94535.25;;;11.70;100.00
51083;BME280;37131;42.694;23.350;2022-09-28T03:35:08;94545.22;;;12.05;100.00
51083;BME280;37131;42.694;23.350;2022-09-28T03:37:34;94500.44;;;11.59;100.00
51083;BME280;37131;42.694;23.350;2022-09-28T03:40:00;94554.44;;;11.86;100.00
51083;BME280;37131;42.694;23.350;2022-09-28T03:42:26;94540.56;;;11.80;100.00
51083;BME280;37131;42.694;23.350;2022-09-28T03:44:51;94544.75;;;11.81;100.00
51083;BME280;37131;42.694;23.350;2022-09-28T03:47:17;94540.06;;;12.16;100.00
51083;BME280;37131;42.694;23.350;2022-09-28T03:49:43;94535.28;;;12.02;100.00
51083;BME280;37131;42.694;23.350;2022-09-28T03:52:10;94531.72;;;12.19;100.00
51083;BME280;37131;42.694;23.350;2022-09-28T03:54:36;94540.06;;;11.83;100.00
51083;BME280;37131;42.694;23.350;2022-09-28T03:57:01;94546.81;;;11.79;100.00
51083;BME280;37131;42.694;23.350;2022-09-28T03:59:26;94508.25;;;11.91;100.00
51083;BME280;37131;42.694;23.350;2022-09-28T04:01:52;94466.31;;;11.38;100.00
51083;BME280;37131;42.694;23.350;2022-09-28T04:04:18;94572.72;;;11.86;100.00
51083;BME280;37131;42.694;23.350;2022-09-28T04:06:43;94533.06;;;11.89;100.00
51083;BME280;37131;42.694;23.350;2022-09-28T04:09:09;94493.34;;;11.27;100.00
51083;BME280;37131;42.694;23.350;2022-09-28T04:11:35;94553.53;;;11.70;100.00
51083;BME280;37131;42.694;23.350;2022-09-28T04:14:00;94541.31;;;11.75;100.00
51083;BME280;37131;42.694;23.350;2022-09-28T04:16:26;94542.88;;;11.49;100.00
51083;BME280;37131;42.694;23.350;2022-09-28T04:18:52;94543.59;;;11.72;100.00
51083;BME280;37131;42.694;23.350;2022-09-28T04:21:19;94539.13;;;11.67;100.00
51083;BME280;37131;42.694;23.350;2022-09-28T04:23:45;94525.97;;;11.57;100.00
51083;BME280;37131;42.694;23.350;2022-09-28T04:28:43;94472.97;;;11.24;100.00
51083;BME280;37131;42.694;23.350;2022-09-28T04:31:27;94546.34;;;11.55;100.00
51083;BME280;37131;42.694;23.350;2022-09-28T04:33:55;94507.88;;;11.18;100.00
51083;BME280;37131;42.694;23.350;2022-09-28T04:36:21;94511.47;;;11.39;100.00
51083;BME280;37131;42.694;23.350;2022-09-28T04:38:46;94504.13;;;11.36;100.00
51083;BME280;37131;42.694;23.350;2022-09-28T04:41:12;94511.63;;;11.27;100.00
51083;BME280;37131;42.694;23.350;2022-09-28T04:43:37;94549.56;;;11.67;100.00
51083;BME280;37131;42.694;23.350;2022-09-28T04:46:03;94497.97;;;11.47;100.00
51083;BME280;37131;42.694;23.350;2022-09-28T04:48:31;94543.63;;;11.99;100.00
51083;BME280;37131;42.694;23.350;2022-09-28T04:50:58;94493.81;;;11.84;100.00
51083;BME280;37131;42.694;23.350;2022-09-28T04:53:26;94550.00;;;12.14;100.00
51083;BME280;37131;42.694;23.350;2022-09-28T04:55:59;94534.66;;;12.27;100.00
51083;BME280;37131;42.694;23.350;2022-09-28T04:58:26;94538.03;;;11.90;100.00
51083;BME280;37131;42.694;23.350;2022-09-28T05:00:52;94537.31;;;11.68;100.00
51083;BME280;37131;42.694;23.350;2022-09-28T05:03:18;94539.03;;;11.84;100.00
51083;BME280;37131;42.694;23.350;2022-09-28T05:05:46;94537.00;;;11.91;100.00
51083;BME280;37131;42.694;23.350;2022-09-28T05:08:11;94539.97;;;12.00;100.00
51083;BME280;37131;42.694;23.350;2022-09-28T05:10:38;94535.28;;;12.07;100.00
51083;BME280;37131;42.694;23.350;2022-09-28T05:13:09;94534.53;;;12.07;100.00
51083;BME280;37131;42.694;23.350;2022-09-28T05:15:35;94538.91;;;12.01;100.00
51083;BME280;37131;42.694;23.350;2022-09-28T05:18:01;94547.06;;;12.05;100.00
51083;BME280;37131;42.694;23.350;2022-09-28T05:20:26;94551.94;;;11.96;100.00
51083;BME280;37131;42.694;23.350;2022-09-28T05:22:52;94530.78;;;11.65;100.00
51083;BME280;37131;42.694;23.350;2022-09-28T05:25:17;94556.41;;;11.73;100.00
51083;BME280;37131;42.694;23.350;2022-09-28T05:27:43;94546.16;;;11.94;100.00
51083;BME280;37131;42.694;23.350;2022-09-28T05:30:10;94567.06;;;11.67;100.00
51083;BME280;37131;42.694;23.350;2022-09-28T05:32:40;94516.50;;;11.46;100.00
51083;BME280;37131;42.694;23.350;2022-09-28T05:35:06;94562.63;;;11.67;100.00
51083;BME280;37131;42.694;23.350;2022-09-28T05:37:31;94561.75;;;11.56;100.00
51083;BME280;37131;42.694;23.350;2022-09-28T05:39:56;94556.78;;;11.55;100.00
51083;BME280;37131;42.694;23.350;2022-09-28T05:42:22;94567.84;;;11.67;100.00
51083;BME280;37131;42.694;23.350;2022-09-28T05:44:47;94557.13;;;11.64;100.00
51083;BME280;37131;42.694;23.350;2022-09-28T05:47:13;94560.66;;;11.52;100.00
51083;BME280;37131;42.694;23.350;2022-09-28T05:49:38;94558.38;;;11.56;100.00
51083;BME280;37131;42.694;23.350;2022-09-28T05:52:03;94561.16;;;12.04;100.00
51083;BME280;37131;42.694;23.350;2022-09-28T05:54:29;94564.63;;;12.15;100.00
51083;BME280;37131;42.694;23.350;2022-09-28T05:56:54;94564.69;;;12.25;100.00
51083;BME280;37131;42.694;23.350;2022-09-28T05:59:19;94561.50;;;12.60;100.00
51083;BME280;37131;42.694;23.350;2022-09-28T06:01:45;94532.88;;;12.33;100.00
51083;BME280;37131;42.694;23.350;2022-09-28T06:04:10;94565.34;;;12.42;100.00
51083;BME280;37131;42.694;23.350;2022-09-28T06:06:36;94554.22;;;12.68;100.00
51083;BME280;37131;42.694;23.350;2022-09-28T06:09:03;94560.47;;;12.61;100.00
51083;BME280;37131;42.694;23.350;2022-09-28T06:11:30;94570.16;;;12.61;100.00
51083;BME280;37131;42.694;23.350;2022-09-28T06:13:55;94585.47;;;12.85;100.00
51083;BME280;37131;42.694;23.350;2022-09-28T06:16:21;94555.53;;;12.65;100.00
51083;BME280;37131;42.694;23.350;2022-09-28T06:18:46;94538.47;;;12.52;100.00
51083;BME280;37131;42.694;23.350;2022-09-28T06:21:12;94539.63;;;12.24;100.00
51083;BME280;37131;42.694;23.350;2022-09-28T06:23:37;94595.69;;;12.11;100.00
51083;BME280;37131;42.694;23.350;2022-09-28T06:26:03;94583.28;;;11.96;100.00
51083;BME280;37131;42.694;23.350;2022-09-28T06:28:28;94519.59;;;11.75;100.00
51083;BME280;37131;42.694;23.350;2022-09-28T06:30:54;94592.78;;;12.07;100.00
51083;BME280;37131;42.694;23.350;2022-09-28T06:33:19;94542.69;;;11.88;100.00
51083;BME280;37131;42.694;23.350;2022-09-28T06:35:46;94586.22;;;12.37;100.00
51083;BME280;37131;42.694;23.350;2022-09-28T06:38:11;94580.78;;;12.06;100.00
51083;BME280;37131;42.694;23.350;2022-09-28T06:40:37;94571.34;;;12.05;100.00
51083;BME280;37131;42.694;23.350;2022-09-28T06:43:10;94586.69;;;12.29;100.00
51083;BME280;37131;42.694;23.350;2022-09-28T06:45:39;94559.63;;;12.08;100.00
51083;BME280;37131;42.694;23.350;2022-09-28T06:48:05;94597.63;;;12.26;100.00
51083;BME280;37131;42.694;23.350;2022-09-28T06:50:39;94598.00;;;12.40;100.00
51083;BME280;37131;42.694;23.350;2022-09-28T06:53:06;94545.19;;;12.43;100.00
51083;BME280;37131;42.694;23.350;2022-09-28T06:55:33;94554.22;;;12.68;100.00
51083;BME280;37131;42.694;23.350;2022-09-28T06:58:04;94587.13;;;13.06;100.00
51083;BME280;37131;42.694;23.350;2022-09-28T07:00:32;94535.53;;;12.43;100.00
51083;BME280;37131;42.694;23.350;2022-09-28T07:02:59;94532.16;;;12.48;100.00
51083;BME280;37131;42.694;23.350;2022-09-28T07:05:24;94588.03;;;12.74;100.00
51083;BME280;37131;42.694;23.350;2022-09-28T07:07:56;94602.81;;;13.01;100.00
51083;BME280;37131;42.694;23.350;2022-09-28T07:10:24;94591.66;;;13.31;100.00
51083;BME280;37131;42.694;23.350;2022-09-28T07:12:50;94597.22;;;13.40;100.00
51083;BME280;37131;42.694;23.350;2022-09-28T07:15:16;94595.06;;;13.32;100.00
51083;BME280;37131;42.694;23.350;2022-09-28T07:17:42;94605.25;;;13.23;100.00
51083;BME280;37131;42.694;23.350;2022-09-28T07:20:07;94602.44;;;13.40;100.00
51083;BME280;37131;42.694;23.350;2022-09-28T07:22:33;94553.63;;;13.13;100.00
51083;BME280;37131;42.694;23.350;2022-09-28T07:24:59;94522.66;;;12.85;100.00
51083;BME280;37131;42.694;23.350;2022-09-28T07:27:25;94603.06;;;13.73;100.00
51083;BME280;37131;42.694;23.350;2022-09-28T07:29:50;94611.94;;;13.67;100.00
51083;BME280;37131;42.694;23.350;2022-09-28T07:32:18;94603.84;;;13.79;100.00
51083;BME280;37131;42.694;23.350;2022-09-28T07:34:43;94605.22;;;14.07;100.00
51083;BME280;37131;42.694;23.350;2022-09-28T07:37:10;94609.41;;;14.34;100.00
51083;BME280;37131;42.694;23.350;2022-09-28T07:39:37;94520.38;;;13.04;100.00
51083;BME280;37131;42.694;23.350;2022-09-28T07:42:23;94561.94;;;13.68;100.00
51083;BME280;37131;42.694;23.350;2022-09-28T07:44:49;94566.66;;;13.87;100.00
51083;BME280;37131;42.694;23.350;2022-09-28T07:47:15;94606.75;;;14.08;100.00
51083;BME280;37131;42.694;23.350;2022-09-28T07:49:43;94601.00;;;13.91;100.00
51083;BME280;37131;42.694;23.350;2022-09-28T07:52:08;94604.16;;;14.18;100.00
51083;BME280;37131;42.694;23.350;2022-09-28T07:54:35;94600.47;;;14.61;100.00
51083;BME280;37131;42.694;23.350;2022-09-28T07:57:00;94598.88;;;14.85;100.00
51083;BME280;37131;42.694;23.350;2022-09-28T07:59:26;94605.66;;;14.97;100.00
51083;BME280;37131;42.694;23.350;2022-09-28T08:01:51;94604.66;;;14.82;100.00
51083;BME280;37131;42.694;23.350;2022-09-28T08:04:16;94602.81;;;14.67;100.00
51083;BME280;37131;42.694;23.350;2022-09-28T08:06:42;94599.56;;;15.12;100.00
51083;BME280;37131;42.694;23.350;2022-09-28T08:09:09;94594.50;;;15.31;100.00
51083;BME280;37131;42.694;23.350;2022-09-28T08:11:34;94594.69;;;15.50;100.00
51083;BME280;37131;42.694;23.350;2022-09-28T08:14:00;94588.19;;;15.37;100.00
51083;BME280;37131;42.694;23.350;2022-09-28T08:16:26;94601.97;;;15.63;100.00
51083;BME280;37131;42.694;23.350;2022-09-28T08:18:52;94595.31;;;15.86;100.00
51083;BME280;37131;42.694;23.350;2022-09-28T08:21:19;94599.38;;;15.58;100.00
51083;BME280;37131;42.694;23.350;2022-09-28T08:24:05;94589.38;;;15.65;100.00
51083;BME280;37131;42.694;23.350;2022-09-28T08:26:30;94549.09;;;15.80;100.00
51083;BME280;37131;42.694;23.350;2022-09-28T08:28:56;94592.50;;;16.41;97.55
51083;BME280;37131;42.694;23.350;2022-09-28T08:31:21;94580.19;;;15.57;96.20
51083;BME280;37131;42.694;23.350;2022-09-28T08:33:46;94576.16;;;15.75;93.96
51083;BME280;37131;42.694;23.350;2022-09-28T08:36:18;94607.53;;;16.41;94.43
51083;BME280;37131;42.694;23.350;2022-09-28T08:38:44;94607.19;;;16.77;94.75
51083;BME280;37131;42.694;23.350;2022-09-28T08:46:40;94612.47;;;17.30;83.33
51083;BME280;37131;42.694;23.350;2022-09-28T08:51:49;94607.06;;;16.92;87.13
51083;BME280;37131;42.694;23.350;2022-09-28T08:54:32;94600.63;;;17.28;86.99
51083;BME280;37131;42.694;23.350;2022-09-28T08:57:04;94596.66;;;17.30;88.11
51083;BME280;37131;42.694;23.350;2022-09-28T09:02:30;94572.53;;;17.42;85.38
51083;BME280;37131;42.694;23.350;2022-09-28T09:04:58;94583.63;;;17.77;83.13
51083;BME280;37131;42.694;23.350;2022-09-28T09:10:46;94587.81;;;17.40;79.33
51083;BME280;37131;42.694;23.350;2022-09-28T09:19:01;94545.16;;;17.38;81.27
51083;BME280;37131;42.694;23.350;2022-09-28T09:30:17;94577.72;;;17.66;74.92
51083;BME280;37131;42.694;23.350;2022-09-28T09:33:30;94563.56;;;18.00;76.53
51083;BME280;37131;42.694;23.350;2022-09-28T09:36:20;94539.09;;;17.95;77.12
51083;BME280;37131;42.694;23.350;2022-09-28T09:44:13;94554.53;;;18.53;77.55
51083;BME280;37131;42.694;23.350;2022-09-28T09:46:50;94552.97;;;18.80;75.14
51083;BME280;37131;42.694;23.350;2022-09-28T09:49:44;94559.41;;;18.60;75.61
51083;BME280;37131;42.694;23.350;2022-09-28T09:52:28;94551.41;;;18.65;72.50
51083;BME280;37131;42.694;23.350;2022-09-28T09:55:04;94551.69;;;18.64;71.52
51083;BME280;37131;42.694;23.350;2022-09-28T09:57:47;94556.22;;;18.77;73.98
51083;BME280;37131;42.694;23.350;2022-09-28T10:00:16;94553.56;;;18.77;71.54
51083;BME280;37131;42.694;23.350;2022-09-28T10:02:44;94550.19;;;18.90;73.02
51083;BME280;37131;42.694;23.350;2022-09-28T10:07:48;94551.03;;;19.41;74.68
51083;BME280;37131;42.694;23.350;2022-09-28T10:10:28;94547.53;;;19.69;70.95
51083;BME280;37131;42.694;23.350;2022-09-28T10:12:54;94545.66;;;19.83;70.91
51083;BME280;37131;42.694;23.350;2022-09-28T10:15:28;94508.94;;;19.68;67.71
51083;BME280;37131;42.694;23.350;2022-09-28T10:17:57;94544.22;;;20.00;69.43
51083;BME280;37131;42.694;23.350;2022-09-28T10:20:26;94475.78;;;19.84;68.72
51083;BME280;37131;42.694;23.350;2022-09-28T10:22:56;94539.78;;;20.40;64.71
51083;BME280;37131;42.694;23.350;2022-09-28T10:25:22;94539.50;;;20.50;66.76
51083;BME280;37131;42.694;23.350;2022-09-28T10:27:48;94536.56;;;20.52;60.64
51083;BME280;37131;42.694;23.350;2022-09-28T10:30:25;94532.50;;;20.46;59.56
51083;BME280;37131;42.694;23.350;2022-09-28T10:32:52;94521.59;;;20.16;59.12
51083;BME280;37131;42.694;23.350;2022-09-28T10:35:24;94529.13;;;20.23;60.15
51083;BME280;37131;42.694;23.350;2022-09-28T10:37:58;94517.91;;;20.57;60.89
51083;BME280;37131;42.694;23.350;2022-09-28T10:40:41;94510.69;;;20.49;58.68
51083;BME280;37131;42.694;23.350;2022-09-28T10:46:13;94516.09;;;21.24;59.55
51083;BME280;37131;42.694;23.350;2022-09-28T10:48:51;94479.88;;;21.02;57.97
51083;BME280;37131;42.694;23.350;2022-09-28T10:51:18;94490.25;;;21.38;54.62
51083;BME280;37131;42.694;23.350;2022-09-28T10:54:01;94491.63;;;21.36;52.65
51083;BME280;37131;42.694;23.350;2022-09-28T10:56:29;94492.75;;;21.26;51.49
51083;BME280;37131;42.694;23.350;2022-09-28T10:58:59;94482.28;;;21.30;56.90
51083;BME280;37131;42.694;23.350;2022-09-28T11:01:29;94469.19;;;21.42;53.52
51083;BME280;37131;42.694;23.350;2022-09-28T11:04:05;94473.09;;;21.97;52.57
51083;BME280;37131;42.694;23.350;2022-09-28T11:06:37;94474.75;;;22.19;53.33
51083;BME280;37131;42.694;23.350;2022-09-28T11:09:06;94483.16;;;22.39;56.58
51083;BME280;37131;42.694;23.350;2022-09-28T11:11:43;94466.72;;;22.54;53.45
51083;BME280;37131;42.694;23.350;2022-09-28T11:14:30;94419.75;;;22.29;52.63
51083;BME280;37131;42.694;23.350;2022-09-28T11:17:25;94457.22;;;22.74;54.70
51083;BME280;37131;42.694;23.350;2022-09-28T11:19:52;94455.16;;;22.80;52.12
51083;BME280;37131;42.694;23.350;2022-09-28T11:22:28;94450.53;;;22.98;51.13
51083;BME280;37131;42.694;23.350;2022-09-28T11:30:37;94452.50;;;23.31;52.22
51083;BME280;37131;42.694;23.350;2022-09-28T11:33:51;94441.06;;;23.18;45.37
51083;BME280;37131;42.694;23.350;2022-09-28T11:50:03;94417.25;;;23.76;45.64
51083;BME280;37131;42.694;23.350;2022-09-28T11:58:48;94433.53;;;23.75;41.50
51083;BME280;37131;42.694;23.350;2022-09-28T12:01:20;94429.59;;;23.60;43.07
51083;BME280;37131;42.694;23.350;2022-09-28T12:03:52;94419.69;;;23.48;43.32
51083;BME280;37131;42.694;23.350;2022-09-28T12:06:26;94426.19;;;23.59;41.38
51083;BME280;37131;42.694;23.350;2022-09-28T12:09:01;94416.16;;;23.77;45.78
51083;BME280;37131;42.694;23.350;2022-09-28T12:11:35;94419.69;;;24.15;45.77
51083;BME280;37131;42.694;23.350;2022-09-28T12:14:05;94415.59;;;24.30;44.27
51083;BME280;37131;42.694;23.350;2022-09-28T12:16:49;94425.91;;;24.19;46.29
51083;BME280;37131;42.694;23.350;2022-09-28T12:19:40;94429.00;;;24.09;48.53
51083;BME280;37131;42.694;23.350;2022-09-28T12:22:31;94422.31;;;23.90;44.48
51083;BME280;37131;42.694;23.350;2022-09-28T12:25:00;94402.00;;;23.64;47.47
51083;BME280;37131;42.694;23.350;2022-09-28T12:30:14;94424.50;;;23.12;52.09
51083;BME280;37131;42.694;23.350;2022-09-28T12:32:51;94419.63;;;23.15;51.79
51083;BME280;37131;42.694;23.350;2022-09-28T13:00:10;94387.03;;;22.75;50.31
51083;BME280;37131;42.694;23.350;2022-09-28T13:19:04;94411.03;;;22.19;44.28
51083;BME280;37131;42.694;23.350;2022-09-28T13:21:38;94412.69;;;22.41;47.18
51083;BME280;37131;42.694;23.350;2022-09-28T13:24:08;94412.47;;;22.55;46.06
51083;BME280;37131;42.694;23.350;2022-09-28T13:26:40;94418.56;;;22.56;44.05
51083;BME280;37131;42.694;23.350;2022-09-28T13:29:12;94418.13;;;22.75;44.62
51083;BME280;37131;42.694;23.350;2022-09-28T13:31:44;94426.66;;;22.89;46.40
51083;BME280;37131;42.694;23.350;2022-09-28T13:34:16;94420.19;;;22.78;45.41
51083;BME280;37131;42.694;23.350;2022-09-28T13:36:45;94418.31;;;23.00;44.33
51083;BME280;37131;42.694;23.350;2022-09-28T13:39:34;94431.38;;;23.14;44.08
51083;BME280;37131;42.694;23.350;2022-09-28T13:42:01;94421.13;;;23.24;43.53
51083;BME280;37131;42.694;23.350;2022-09-28T13:44:41;94425.41;;;23.38;45.37
51083;BME280;37131;42.694;23.350;2022-09-28T13:47:31;94420.16;;;23.29;44.17
51083;BME280;37131;42.694;23.350;2022-09-28T13:53:12;94417.69;;;23.45;41.04
51083;BME280;37131;42.694;23.350;2022-09-28T13:55:48;94405.47;;;23.44;42.71
51083;BME280;37131;42.694;23.350;2022-09-28T13:58:25;94374.91;;;23.17;44.75
51083;BME280;37131;42.694;23.350;2022-09-28T14:06:52;94411.53;;;23.11;41.97
51083;BME280;37131;42.694;23.350;2022-09-28T14:09:38;94412.88;;;22.96;43.51
51083;BME280;37131;42.694;23.350;2022-09-28T14:14:50;94410.13;;;22.84;43.19
51083;BME280;37131;42.694;23.350;2022-09-28T14:20:12;94382.28;;;22.90;45.93
51083;BME280;37131;42.694;23.350;2022-09-28T14:25:35;94398.38;;;22.85;48.09
51083;BME280;37131;42.694;23.350;2022-09-28T14:30:52;94399.47;;;22.33;47.22
51083;BME280;37131;42.694;23.350;2022-09-28T14:35:50;94390.72;;;22.23;48.75
51083;BME280;37131;42.694;23.350;2022-09-28T14:38:24;94392.59;;;22.23;48.02
51083;BME280;37131;42.694;23.350;2022-09-28T14:41:30;94402.25;;;21.80;50.28
51083;BME280;37131;42.694;23.350;2022-09-28T14:44:04;94404.88;;;21.89;50.62
51083;BME280;37131;42.694;23.350;2022-09-28T14:46:32;94407.06;;;21.96;47.22
51083;BME280;37131;42.694;23.350;2022-09-28T14:49:50;94395.38;;;21.88;47.82
51083;BME280;37131;42.694;23.350;2022-09-28T14:54:20;94392.81;;;22.00;45.02
51083;BME280;37131;42.694;23.350;2022-09-28T14:59:25;94394.22;;;21.98;47.58
51083;BME280;37131;42.694;23.350;2022-09-28T15:01:52;94416.88;;;21.95;45.87
51083;BME280;37131;42.694;23.350;2022-09-28T15:04:19;94403.81;;;21.81;48.51
51083;BME280;37131;42.694;23.350;2022-09-28T15:06:48;94396.91;;;21.89;45.23
51083;BME280;37131;42.694;23.350;2022-09-28T15:11:51;94404.00;;;21.76;47.30
51083;BME280;37131;42.694;23.350;2022-09-28T15:14:19;94406.13;;;21.83;46.08
51083;BME280;37131;42.694;23.350;2022-09-28T15:16:45;94378.88;;;21.65;45.38
51083;BME280;37131;42.694;23.350;2022-09-28T15:19:46;94416.28;;;21.89;45.09
51083;BME280;37131;42.694;23.350;2022-09-28T15:22:19;94380.44;;;21.66;45.32
51083;BME280;37131;42.694;23.350;2022-09-28T15:25:11;94424.41;;;21.84;45.15
51083;BME280;37131;42.694;23.350;2022-09-28T15:27:37;94426.25;;;21.93;44.99
51083;BME280;37131;42.694;23.350;2022-09-28T15:30:31;94426.41;;;21.96;45.33
51083;BME280;37131;42.694;23.350;2022-09-28T15:32:59;94426.91;;;21.89;46.08
51083;BME280;37131;42.694;23.350;2022-09-28T15:36:00;94425.34;;;21.80;47.17
51083;BME280;37131;42.694;23.350;2022-09-28T15:38:27;94424.09;;;21.68;47.43
51083;BME280;37131;42.694;23.350;2022-09-28T15:40:54;94425.38;;;21.62;47.51
51083;BME280;37131;42.694;23.350;2022-09-28T15:43:28;94427.06;;;21.49;49.12
51083;BME280;37131;42.694;23.350;2022-09-28T15:46:05;94427.84;;;21.41;50.28
51083;BME280;37131;42.694;23.350;2022-09-28T15:51:17;94428.63;;;21.15;50.20
51083;BME280;37131;42.694;23.350;2022-09-28T15:53:59;94440.31;;;21.06;50.59
51083;BME280;37131;42.694;23.350;2022-09-28T15:56:26;94394.53;;;20.65;51.70
51083;BME280;37131;42.694;23.350;2022-09-28T15:59:17;94440.56;;;20.78;52.34
51083;BME280;37131;42.694;23.350;2022-09-28T16:01:47;94443.50;;;20.67;52.41
51083;BME280;37131;42.694;23.350;2022-09-28T16:04:35;94441.88;;;20.58;51.99